createdAt,value
2017-12-10T00:00:27.918Z,4.96
2017-12-10T00:01:08.445Z,5
2017-12-10T00:01:49.007Z,5.03
2017-12-10T00:02:29.586Z,5.02
2017-12-10T00:03:10.178Z,4.91
2017-12-10T00:03:50.694Z,5
2017-12-10T00:04:31.302Z,5.09
2017-12-10T00:05:11.815Z,5.15
2017-12-10T00:05:52.370Z,5.12
2017-12-10T00:06:32.900Z,5.17
2017-12-10T00:07:13.471Z,5.22
2017-12-10T00:07:53.995Z,5.21
2017-12-10T00:08:34.589Z,5.15
2017-12-10T00:09:15.095Z,5.09
2017-12-10T00:09:55.623Z,5.06
2017-12-10T00:10:36.163Z,5.18
2017-12-10T00:11:16.702Z,5.1
2017-12-10T00:11:57.238Z,5.12
2017-12-10T00:12:37.808Z,5.21
2017-12-10T00:13:18.309Z,5.06
2017-12-10T00:13:58.793Z,5.06
2017-12-10T00:14:39.355Z,5.04
2017-12-10T00:15:19.915Z,5.09
2017-12-10T00:16:00.403Z,5
2017-12-10T00:16:40.968Z,5.06
2017-12-10T00:17:21.505Z,5.09
2017-12-10T00:18:02.019Z,5.03
2017-12-10T00:18:42.546Z,5.06
2017-12-10T00:19:23.056Z,5.12
2017-12-10T00:20:03.560Z,5.07
2017-12-10T00:20:44.092Z,5.12
2017-12-10T00:21:24.654Z,5.04
2017-12-10T00:22:05.207Z,5.07
2017-12-10T00:22:45.781Z,5.07
2017-12-10T00:23:26.237Z,5.03
2017-12-10T00:24:06.799Z,4.86
2017-12-10T00:24:47.378Z,4.85
2017-12-10T00:25:27.870Z,4.91
2017-12-10T00:26:08.421Z,5
2017-12-10T00:26:48.946Z,5.06
2017-12-10T00:27:29.479Z,5.09
2017-12-10T00:28:10.043Z,4.86
2017-12-10T00:28:50.607Z,4.84
2017-12-10T00:29:31.223Z,4.92
2017-12-10T00:30:11.730Z,4.88
2017-12-10T00:30:52.279Z,4.94
2017-12-10T00:31:32.805Z,5.02
2017-12-10T00:32:13.406Z,5
2017-12-10T00:32:53.851Z,4.89
2017-12-10T00:33:34.379Z,5
2017-12-10T00:34:14.917Z,4.86
2017-12-10T00:34:55.438Z,4.85
2017-12-10T00:35:35.987Z,4.91
2017-12-10T00:36:16.512Z,4.89
2017-12-10T00:36:57.112Z,4.92
2017-12-10T00:37:37.627Z,4.99
2017-12-10T00:38:18.163Z,4.88
2017-12-10T00:38:58.702Z,4.8
2017-12-10T00:39:39.263Z,4.72
2017-12-10T00:40:19.840Z,4.67
2017-12-10T00:41:00.391Z,4.69
2017-12-10T00:41:40.878Z,4.75
2017-12-10T00:42:21.428Z,4.69
2017-12-10T00:43:01.965Z,4.69
2017-12-10T00:43:42.473Z,4.63
2017-12-10T00:44:23.012Z,4.63
2017-12-10T00:45:03.573Z,4.48
2017-12-10T00:45:44.091Z,4.63
2017-12-10T00:46:24.660Z,4.6
2017-12-10T00:47:05.175Z,4.62
2017-12-10T00:47:45.747Z,4.54
2017-12-10T00:48:26.360Z,4.52
2017-12-10T00:49:06.804Z,4.41
2017-12-10T00:49:47.367Z,4.42
2017-12-10T00:50:27.878Z,4.4
2017-12-10T00:51:08.397Z,4.44
2017-12-10T00:51:48.882Z,4.58
2017-12-10T00:52:29.389Z,4.55
2017-12-10T00:53:09.952Z,4.52
2017-12-10T00:53:50.495Z,4.48
2017-12-10T00:54:30.973Z,4.55
2017-12-10T00:55:11.538Z,4.55
2017-12-10T00:55:52.100Z,4.54
2017-12-10T00:56:32.657Z,4.52
2017-12-10T00:57:13.164Z,4.5
2017-12-10T00:57:53.694Z,4.65
2017-12-10T00:58:34.191Z,4.62
2017-12-10T00:59:14.730Z,4.54
2017-12-10T00:59:55.242Z,4.55
2017-12-10T01:00:35.802Z,4.62
2017-12-10T01:01:16.344Z,4.54
2017-12-10T01:01:56.905Z,4.54
2017-12-10T01:02:37.403Z,4.62
2017-12-10T01:03:17.939Z,4.54
2017-12-10T01:03:58.464Z,4.47
2017-12-10T01:04:39.014Z,4.58
2017-12-10T01:05:19.519Z,4.55
2017-12-10T01:06:00.064Z,4.6
2017-12-10T01:06:40.606Z,4.58
2017-12-10T01:07:21.129Z,4.42
2017-12-10T01:08:01.671Z,4.58
2017-12-10T01:08:42.216Z,4.58
2017-12-10T01:09:22.807Z,4.6
2017-12-10T01:10:03.346Z,4.65
2017-12-10T01:10:43.905Z,4.58
2017-12-10T01:11:24.442Z,4.62
2017-12-10T01:12:04.954Z,4.67
2017-12-10T01:12:45.477Z,4.7
2017-12-10T01:13:25.972Z,4.73
2017-12-10T01:14:06.519Z,4.77
2017-12-10T01:14:47.063Z,4.73
2017-12-10T01:15:27.576Z,4.66
2017-12-10T01:16:08.126Z,4.75
2017-12-10T01:16:48.667Z,4.78
2017-12-10T01:17:29.228Z,4.78
2017-12-10T01:18:09.735Z,4.8
2017-12-10T01:18:50.305Z,4.77
2017-12-10T01:19:30.852Z,4.73
2017-12-10T01:20:11.368Z,4.58
2017-12-10T01:20:51.940Z,4.62
2017-12-10T01:21:32.432Z,4.65
2017-12-10T01:22:12.971Z,4.59
2017-12-10T01:22:53.513Z,4.55
2017-12-10T01:23:34.008Z,4.58
2017-12-10T01:24:14.547Z,4.59
2017-12-10T01:24:55.070Z,4.67
2017-12-10T01:25:35.623Z,4.67
2017-12-10T01:26:16.176Z,4.65
2017-12-10T01:26:56.693Z,4.66
2017-12-10T01:27:37.249Z,4.66
2017-12-10T01:28:17.764Z,4.6
2017-12-10T01:28:58.367Z,4.6
2017-12-10T01:29:38.833Z,4.59
2017-12-10T01:30:19.391Z,4.5
2017-12-10T01:30:59.912Z,4.51
2017-12-10T01:31:40.438Z,4.55
2017-12-10T01:32:20.967Z,4.58
2017-12-10T01:33:01.526Z,4.6
2017-12-10T01:33:42.061Z,4.67
2017-12-10T01:34:22.578Z,4.65
2017-12-10T01:35:03.180Z,4.66
2017-12-10T01:35:43.633Z,4.58
2017-12-10T01:36:24.208Z,4.65
2017-12-10T01:37:04.723Z,4.66
2017-12-10T01:37:45.254Z,4.58
2017-12-10T01:38:25.780Z,4.65
2017-12-10T01:39:06.298Z,4.62
2017-12-10T01:39:46.807Z,4.67
2017-12-10T01:40:27.308Z,4.59
2017-12-10T01:41:07.868Z,4.62
2017-12-10T01:41:48.369Z,4.66
2017-12-10T01:42:28.896Z,4.65
2017-12-10T01:43:09.479Z,4.59
2017-12-10T01:43:50.000Z,4.67
2017-12-10T01:44:30.537Z,4.65
2017-12-10T01:45:11.048Z,4.66
2017-12-10T01:45:51.581Z,4.63
2017-12-10T01:46:32.118Z,4.65
2017-12-10T01:47:12.630Z,4.65
2017-12-10T01:47:53.117Z,4.67
2017-12-10T01:48:33.657Z,4.62
2017-12-10T01:49:14.237Z,4.63
2017-12-10T01:49:54.761Z,4.59
2017-12-10T01:50:35.298Z,4.55
2017-12-10T01:51:15.856Z,4.58
2017-12-10T01:51:56.377Z,4.48
2017-12-10T01:52:36.921Z,4.5
2017-12-10T01:53:17.431Z,4.52
2017-12-10T01:53:57.953Z,4.42
2017-12-10T01:54:38.491Z,4.51
2017-12-10T01:55:19.036Z,4.6
2017-12-10T01:55:59.586Z,4.51
2017-12-10T01:56:40.073Z,4.41
2017-12-10T01:57:20.663Z,4.5
2017-12-10T01:58:01.210Z,4.42
2017-12-10T01:58:41.704Z,4.37
2017-12-10T01:59:22.277Z,4.4
2017-12-10T02:00:02.777Z,4.42
2017-12-10T02:00:43.374Z,4.34
2017-12-10T02:01:23.874Z,4.41
2017-12-10T02:02:04.422Z,4.42
2017-12-10T02:02:45.062Z,4.45
2017-12-10T02:03:25.543Z,4.36
2017-12-10T02:04:06.089Z,4.42
2017-12-10T02:04:46.624Z,4.34
2017-12-10T02:05:27.175Z,4.42
2017-12-10T02:06:07.707Z,4.44
2017-12-10T02:06:48.238Z,4.3
2017-12-10T02:07:28.755Z,4.24
2017-12-10T02:08:09.323Z,4.22
2017-12-10T02:08:49.880Z,4.27
2017-12-10T02:09:30.434Z,4.26
2017-12-10T02:10:10.978Z,4.33
2017-12-10T02:10:51.485Z,4.24
2017-12-10T02:11:32.022Z,4.27
2017-12-10T02:12:12.543Z,4.24
2017-12-10T02:12:53.098Z,4.32
2017-12-10T02:13:33.590Z,4.26
2017-12-10T02:14:14.149Z,4.22
2017-12-10T02:14:54.669Z,4.12
2017-12-10T02:15:35.236Z,4.24
2017-12-10T02:16:15.773Z,4.16
2017-12-10T02:16:56.326Z,4.15
2017-12-10T02:17:36.849Z,4
2017-12-10T02:18:17.403Z,4.15
2017-12-10T02:18:57.921Z,4.24
2017-12-10T02:19:38.428Z,4.3
2017-12-10T02:20:18.985Z,4.29
2017-12-10T02:20:59.512Z,4.27
2017-12-10T02:21:40.031Z,4.29
2017-12-10T02:22:20.551Z,4.41
2017-12-10T02:23:01.107Z,4.33
2017-12-10T02:23:41.628Z,4.27
2017-12-10T02:24:22.145Z,4.44
2017-12-10T02:25:02.670Z,4.37
2017-12-10T02:25:43.262Z,4.41
2017-12-10T02:26:23.826Z,4.4
2017-12-10T02:27:04.332Z,4.52
2017-12-10T02:27:44.841Z,4.41
2017-12-10T02:28:25.343Z,4.5
2017-12-10T02:29:05.901Z,4.52
2017-12-10T02:29:46.440Z,4.4
2017-12-10T02:30:27.017Z,4.45
2017-12-10T02:31:07.559Z,4.59
2017-12-10T02:31:48.086Z,4.55
2017-12-10T02:32:28.627Z,4.5
2017-12-10T02:33:09.145Z,4.54
2017-12-10T02:33:49.708Z,4.5
2017-12-10T02:34:30.206Z,4.44
2017-12-10T02:35:10.749Z,4.41
2017-12-10T02:35:51.347Z,4.42
2017-12-10T02:36:31.846Z,4.44
2017-12-10T02:37:12.382Z,4.47
2017-12-10T02:37:52.904Z,4.52
2017-12-10T02:38:33.432Z,4.42
2017-12-10T02:39:14.017Z,4.42
2017-12-10T02:39:54.542Z,4.4
2017-12-10T02:40:35.050Z,4.51
2017-12-10T02:41:15.580Z,4.41
2017-12-10T02:41:56.135Z,4.45
2017-12-10T02:42:36.652Z,4.47
2017-12-10T02:43:17.238Z,4.4
2017-12-10T02:43:57.726Z,4.48
2017-12-10T02:44:38.263Z,4.55
2017-12-10T02:45:18.777Z,4.65
2017-12-10T02:45:59.310Z,4.62
2017-12-10T02:46:39.851Z,4.72
2017-12-10T02:47:20.412Z,4.73
2017-12-10T02:48:00.956Z,4.77
2017-12-10T02:48:41.471Z,4.89
2017-12-10T02:49:21.998Z,4.86
2017-12-10T02:50:02.538Z,4.91
2017-12-10T02:50:43.091Z,4.94
2017-12-10T02:51:23.614Z,4.92
2017-12-10T02:52:04.181Z,4.97
2017-12-10T02:52:44.735Z,5.04
2017-12-10T02:53:25.216Z,5
2017-12-10T02:54:05.747Z,5.06
2017-12-10T02:54:46.277Z,5.09
2017-12-10T02:55:26.805Z,4.94
2017-12-10T02:56:07.328Z,5
2017-12-10T02:56:47.882Z,5.02
2017-12-10T02:57:28.481Z,5.04
2017-12-10T02:58:08.995Z,4.94
2017-12-10T02:58:49.523Z,5.15
2017-12-10T02:59:30.070Z,5.02
2017-12-10T03:00:10.620Z,5.09
2017-12-10T03:00:51.126Z,5.15
2017-12-10T03:01:31.656Z,5.1
2017-12-10T03:02:12.204Z,5.07
2017-12-10T03:02:52.730Z,5
2017-12-10T03:03:33.256Z,4.96
2017-12-10T03:04:13.796Z,4.91
2017-12-10T03:04:54.349Z,4.91
2017-12-10T03:05:34.911Z,4.85
2017-12-10T03:06:15.399Z,4.77
2017-12-10T03:06:55.967Z,4.97
2017-12-10T03:07:36.476Z,5
2017-12-10T03:08:16.976Z,4.97
2017-12-10T03:08:57.505Z,4.97
2017-12-10T03:09:38.050Z,4.97
2017-12-10T03:10:18.582Z,4.92
2017-12-10T03:10:59.093Z,4.96
2017-12-10T03:11:39.689Z,4.89
2017-12-10T03:12:20.233Z,4.85
2017-12-10T03:13:00.771Z,4.92
2017-12-10T03:13:41.296Z,4.94
2017-12-10T03:14:21.787Z,4.94
2017-12-10T03:15:02.319Z,4.91
2017-12-10T03:15:42.913Z,4.89
2017-12-10T03:16:23.443Z,4.89
2017-12-10T03:17:03.955Z,4.94
2017-12-10T03:17:44.507Z,5.06
2017-12-10T03:18:25.073Z,5.02
2017-12-10T03:19:05.597Z,5.06
2017-12-10T03:19:46.152Z,5.03
2017-12-10T03:20:26.642Z,5.12
2017-12-10T03:21:07.195Z,5.15
2017-12-10T03:21:47.701Z,5.04
2017-12-10T03:22:28.279Z,5.06
2017-12-10T03:23:08.829Z,5.13
2017-12-10T03:23:49.351Z,5.21
2017-12-10T03:24:29.886Z,5.21
2017-12-10T03:25:10.452Z,5.2
2017-12-10T03:25:50.978Z,5.22
2017-12-10T03:26:31.522Z,5.24
2017-12-10T03:27:12.064Z,5.18
2017-12-10T03:27:52.574Z,5.24
2017-12-10T03:28:33.133Z,5.2
2017-12-10T03:29:13.669Z,5.28
2017-12-10T03:29:54.219Z,5.22
2017-12-10T03:30:34.772Z,5.27
2017-12-10T03:31:15.329Z,5.2
2017-12-10T03:31:55.865Z,5.2
2017-12-10T03:32:36.410Z,5.2
2017-12-10T03:33:16.975Z,5.25
2017-12-10T03:33:57.454Z,5.39
2017-12-10T03:34:38.063Z,5.22
2017-12-10T03:35:18.588Z,5.31
2017-12-10T03:35:59.207Z,5.3
2017-12-10T03:36:39.745Z,5.4
2017-12-10T03:37:20.266Z,5.38
2017-12-10T03:38:00.790Z,5.35
2017-12-10T03:38:41.355Z,5.43
2017-12-10T03:39:21.920Z,5.39
2017-12-10T03:40:02.411Z,5.33
2017-12-10T03:40:42.966Z,5.25
2017-12-10T03:41:23.525Z,5.22
2017-12-10T03:42:04.069Z,5.28
2017-12-10T03:42:44.664Z,5.28
2017-12-10T03:43:25.242Z,5.28
2017-12-10T03:44:05.750Z,5.3
2017-12-10T03:44:46.265Z,5.28
2017-12-10T03:45:26.786Z,5.28
2017-12-10T03:46:07.302Z,5.3
2017-12-10T03:46:47.815Z,5.27
2017-12-10T03:47:28.360Z,5.35
2017-12-10T03:48:08.879Z,5.18
2017-12-10T03:48:49.407Z,5.18
2017-12-10T03:49:29.958Z,5.09
2017-12-10T03:50:10.473Z,5.12
2017-12-10T03:50:51.032Z,5.03
2017-12-10T03:51:31.570Z,5.09
2017-12-10T03:52:12.128Z,5.07
2017-12-10T03:52:52.680Z,5.07
2017-12-10T03:53:33.234Z,5.06
2017-12-10T03:54:13.750Z,5
2017-12-10T03:54:54.221Z,4.99
2017-12-10T03:55:34.781Z,5
2017-12-10T03:56:15.278Z,5.12
2017-12-10T03:56:55.834Z,5.09
2017-12-10T03:57:36.350Z,5.18
2017-12-10T03:58:16.852Z,5.21
2017-12-10T03:58:57.411Z,5.17
2017-12-10T03:59:37.947Z,5.35
2017-12-10T04:00:18.504Z,5.3
2017-12-10T04:00:59.044Z,5.22
2017-12-10T04:01:39.563Z,5.3
2017-12-10T04:02:20.128Z,5.35
2017-12-10T04:03:00.651Z,5.3
2017-12-10T04:03:41.172Z,5.31
2017-12-10T04:04:21.700Z,5.35
2017-12-10T04:05:02.247Z,5.27
2017-12-10T04:05:42.755Z,5.43
2017-12-10T04:06:23.282Z,5.46
2017-12-10T04:07:03.837Z,5.3
2017-12-10T04:07:44.380Z,5.45
2017-12-10T04:08:24.898Z,5.33
2017-12-10T04:09:05.451Z,5.39
2017-12-10T04:09:45.983Z,5.46
2017-12-10T04:10:26.480Z,5.33
2017-12-10T04:11:07.018Z,5.38
2017-12-10T04:11:47.548Z,5.36
2017-12-10T04:12:28.108Z,5.38
2017-12-10T04:13:08.627Z,5.31
2017-12-10T04:13:49.137Z,5.33
2017-12-10T04:14:29.636Z,5.24
2017-12-10T04:15:10.266Z,5.3
2017-12-10T04:15:50.752Z,5.28
2017-12-10T04:16:31.337Z,5.31
2017-12-10T04:17:11.856Z,5.33
2017-12-10T04:17:52.406Z,5.31
2017-12-10T04:18:32.910Z,5.28
2017-12-10T04:19:13.461Z,5.22
2017-12-10T04:19:53.972Z,5.18
2017-12-10T04:20:34.491Z,5.28
2017-12-10T04:21:15.015Z,5.27
2017-12-10T04:21:55.539Z,5.25
2017-12-10T04:22:36.114Z,5.36
2017-12-10T04:23:16.642Z,5.27
2017-12-10T04:23:57.232Z,5.25
2017-12-10T04:24:38.357Z,5.33
2017-12-10T04:25:18.862Z,5.36
2017-12-10T04:25:59.393Z,5.39
2017-12-10T04:26:39.943Z,5.28
2017-12-10T04:27:20.450Z,5.31
2017-12-10T04:28:01.000Z,5.45
2017-12-10T04:28:41.531Z,5.39
2017-12-10T04:29:22.111Z,5.53
2017-12-10T04:30:02.586Z,5.54
2017-12-10T04:30:43.119Z,5.46
2017-12-10T04:31:23.730Z,5.51
2017-12-10T04:32:04.302Z,5.54
2017-12-10T04:32:44.793Z,5.53
2017-12-10T04:33:25.388Z,5.45
2017-12-10T04:34:05.908Z,5.51
2017-12-10T04:34:46.414Z,5.48
2017-12-10T04:35:26.948Z,5.53
2017-12-10T04:36:07.493Z,5.51
2017-12-10T04:36:48.053Z,5.57
2017-12-10T04:37:28.588Z,5.57
2017-12-10T04:38:09.117Z,5.49
2017-12-10T04:38:49.649Z,5.45
2017-12-10T04:39:30.173Z,5.54
2017-12-10T04:40:10.729Z,5.64
2017-12-10T04:40:51.326Z,5.61
2017-12-10T04:41:31.786Z,5.63
2017-12-10T04:42:12.361Z,5.68
2017-12-10T04:42:52.889Z,5.57
2017-12-10T04:43:33.429Z,5.61
2017-12-10T04:44:13.999Z,5.54
2017-12-10T04:44:54.526Z,5.49
2017-12-10T04:45:35.083Z,5.31
2017-12-10T04:46:15.617Z,5.31
2017-12-10T04:46:56.170Z,5.4
2017-12-10T04:47:36.722Z,5.39
2017-12-10T04:48:17.238Z,5.45
2017-12-10T04:48:57.785Z,5.48
2017-12-10T04:49:38.308Z,5.43
2017-12-10T04:50:18.844Z,5.46
2017-12-10T04:50:59.379Z,5.49
2017-12-10T04:51:39.913Z,5.48
2017-12-10T04:52:20.428Z,5.49
2017-12-10T04:53:00.965Z,5.43
2017-12-10T04:53:41.502Z,5.43
2017-12-10T04:54:22.044Z,5.39
2017-12-10T04:55:02.588Z,5.45
2017-12-10T04:55:43.110Z,5.45
2017-12-10T04:56:23.646Z,5.39
2017-12-10T04:57:04.197Z,5.46
2017-12-10T04:57:44.729Z,5.57
2017-12-10T04:58:25.269Z,5.58
2017-12-10T04:59:05.799Z,5.49
2017-12-10T04:59:46.363Z,5.58
2017-12-10T05:00:26.902Z,5.49
2017-12-10T05:01:07.411Z,5.53
2017-12-10T05:01:48.012Z,5.56
2017-12-10T05:02:28.549Z,5.38
2017-12-10T05:03:09.078Z,5.49
2017-12-10T05:03:49.596Z,5.53
2017-12-10T05:04:30.132Z,5.56
2017-12-10T05:05:10.675Z,5.65
2017-12-10T05:05:51.204Z,5.57
2017-12-10T05:06:31.777Z,5.56
2017-12-10T05:07:12.304Z,5.6
2017-12-10T05:07:52.865Z,5.57
2017-12-10T05:08:33.388Z,5.61
2017-12-10T05:09:13.942Z,5.56
2017-12-10T05:09:54.452Z,5.61
2017-12-10T05:10:34.978Z,5.78
2017-12-10T05:11:15.546Z,5.72
2017-12-10T05:11:56.037Z,5.67
2017-12-10T05:12:36.583Z,5.63
2017-12-10T05:13:17.172Z,5.68
2017-12-10T05:13:57.665Z,5.65
2017-12-10T05:14:38.169Z,5.64
2017-12-10T05:15:18.727Z,5.6
2017-12-10T05:15:59.232Z,5.67
2017-12-10T05:16:39.817Z,5.68
2017-12-10T05:17:20.291Z,5.78
2017-12-10T05:18:00.849Z,5.67
2017-12-10T05:18:41.388Z,5.67
2017-12-10T05:19:21.925Z,5.67
2017-12-10T05:20:02.498Z,5.67
2017-12-10T05:20:42.997Z,5.71
2017-12-10T05:21:23.548Z,5.76
2017-12-10T05:22:04.101Z,5.79
2017-12-10T05:22:44.643Z,5.71
2017-12-10T05:23:25.178Z,5.74
2017-12-10T05:24:05.707Z,5.68
2017-12-10T05:24:46.242Z,5.67
2017-12-10T05:25:26.802Z,5.74
2017-12-10T05:26:07.320Z,5.68
2017-12-10T05:26:47.877Z,5.74
2017-12-10T05:27:28.384Z,5.85
2017-12-10T05:28:08.918Z,5.68
2017-12-10T05:28:49.467Z,5.64
2017-12-10T05:29:29.958Z,5.72
2017-12-10T05:30:10.523Z,5.67
2017-12-10T05:30:51.048Z,5.64
2017-12-10T05:31:31.552Z,5.6
2017-12-10T05:32:12.138Z,5.51
2017-12-10T05:32:52.680Z,5.53
2017-12-10T05:33:33.270Z,5.56
2017-12-10T05:34:13.756Z,5.61
2017-12-10T05:34:54.301Z,5.6
2017-12-10T05:35:34.847Z,5.51
2017-12-10T05:36:15.369Z,5.54
2017-12-10T05:36:55.896Z,5.65
2017-12-10T05:37:36.475Z,5.74
2017-12-10T05:38:16.985Z,5.72
2017-12-10T05:38:57.491Z,5.75
2017-12-10T05:39:38.042Z,5.72
2017-12-10T05:40:18.600Z,5.61
2017-12-10T05:40:59.186Z,5.67
2017-12-10T05:41:39.706Z,5.72
2017-12-10T05:42:20.296Z,5.75
2017-12-10T05:43:00.965Z,5.75
2017-12-10T05:43:41.395Z,5.83
2017-12-10T05:44:21.946Z,5.72
2017-12-10T05:45:02.515Z,5.74
2017-12-10T05:45:43.002Z,5.74
2017-12-10T05:46:23.539Z,5.74
2017-12-10T05:47:04.066Z,5.68
2017-12-10T05:47:44.629Z,5.68
2017-12-10T05:48:25.167Z,5.67
2017-12-10T05:49:05.721Z,5.72
2017-12-10T05:49:46.229Z,5.71
2017-12-10T05:50:26.759Z,5.72
2017-12-10T05:51:07.274Z,5.57
2017-12-10T05:51:47.815Z,5.63
2017-12-10T05:52:28.378Z,5.54
2017-12-10T05:53:08.909Z,5.63
2017-12-10T05:53:49.439Z,5.53
2017-12-10T05:54:29.996Z,5.61
2017-12-10T05:55:10.528Z,5.49
2017-12-10T05:55:51.074Z,5.51
2017-12-10T05:56:31.593Z,5.49
2017-12-10T05:57:12.120Z,5.43
2017-12-10T05:57:52.671Z,5.53
2017-12-10T05:58:33.212Z,5.46
2017-12-10T05:59:13.800Z,5.56
2017-12-10T05:59:54.319Z,5.51
2017-12-10T06:00:34.840Z,5.45
2017-12-10T06:01:15.452Z,5.43
2017-12-10T06:01:55.947Z,5.6
2017-12-10T06:02:36.503Z,5.53
2017-12-10T06:03:17.039Z,5.49
2017-12-10T06:03:57.566Z,5.51
2017-12-10T06:04:38.094Z,5.54
2017-12-10T06:05:18.658Z,5.57
2017-12-10T06:05:59.162Z,5.54
2017-12-10T06:06:39.740Z,5.61
2017-12-10T06:07:20.325Z,5.61
2017-12-10T06:08:00.923Z,5.72
2017-12-10T06:08:41.546Z,5.65
2017-12-10T06:09:22.086Z,5.68
2017-12-10T06:10:02.566Z,5.79
2017-12-10T06:10:43.112Z,5.68
2017-12-10T06:11:23.646Z,5.74
2017-12-10T06:12:04.189Z,5.79
2017-12-10T06:12:44.726Z,5.74
2017-12-10T06:13:25.235Z,5.65
2017-12-10T06:14:05.810Z,5.71
2017-12-10T06:14:46.344Z,5.68
2017-12-10T06:15:26.929Z,5.79
2017-12-10T06:16:07.441Z,5.72
2017-12-10T06:16:47.991Z,5.71
2017-12-10T06:17:28.531Z,5.68
2017-12-10T06:18:09.060Z,5.82
2017-12-10T06:18:49.654Z,5.83
2017-12-10T06:19:30.170Z,5.81
2017-12-10T06:20:10.678Z,5.93
2017-12-10T06:20:51.210Z,5.83
2017-12-10T06:21:31.750Z,5.99
2017-12-10T06:22:12.257Z,5.96
2017-12-10T06:22:52.813Z,5.85
2017-12-10T06:23:33.368Z,5.79
2017-12-10T06:24:13.854Z,5.85
2017-12-10T06:24:54.390Z,5.74
2017-12-10T06:25:34.949Z,5.71
2017-12-10T06:26:15.489Z,5.82
2017-12-10T06:26:56.008Z,5.81
2017-12-10T06:27:36.555Z,5.64
2017-12-10T06:28:17.112Z,5.72
2017-12-10T06:28:57.626Z,5.71
2017-12-10T06:29:38.148Z,5.76
2017-12-10T06:30:18.724Z,5.78
2017-12-10T06:30:59.293Z,5.82
2017-12-10T06:31:39.793Z,5.81
2017-12-10T06:32:20.341Z,5.82
2017-12-10T06:33:00.919Z,5.83
2017-12-10T06:33:41.461Z,5.83
2017-12-10T06:34:22.013Z,5.85
2017-12-10T06:35:02.571Z,5.83
2017-12-10T06:35:43.146Z,5.85
2017-12-10T06:36:23.703Z,5.71
2017-12-10T06:37:04.232Z,5.74
2017-12-10T06:37:44.715Z,5.65
2017-12-10T06:38:25.249Z,5.75
2017-12-10T06:39:05.782Z,5.78
2017-12-10T06:39:46.338Z,5.64
2017-12-10T06:40:26.884Z,5.75
2017-12-10T06:41:07.421Z,5.74
2017-12-10T06:41:47.943Z,5.75
2017-12-10T06:42:28.487Z,5.63
2017-12-10T06:43:09.063Z,5.46
2017-12-10T06:43:49.616Z,5.51
2017-12-10T06:44:30.180Z,5.56
2017-12-10T06:45:10.736Z,5.54
2017-12-10T06:45:51.285Z,5.53
2017-12-10T06:46:31.855Z,5.53
2017-12-10T06:47:12.401Z,5.54
2017-12-10T06:47:53.003Z,5.56
2017-12-10T06:48:33.513Z,5.58
2017-12-10T06:49:14.085Z,5.49
2017-12-10T06:49:54.630Z,5.46
2017-12-10T06:50:35.164Z,5.53
2017-12-10T06:51:15.699Z,5.58
2017-12-10T06:51:56.231Z,5.49
2017-12-10T06:52:36.764Z,5.56
2017-12-10T06:53:17.755Z,5.57
2017-12-10T06:53:58.266Z,5.58
2017-12-10T06:54:38.810Z,5.64
2017-12-10T06:55:19.358Z,5.6
2017-12-10T06:55:59.908Z,5.56
2017-12-10T06:56:40.463Z,5.56
2017-12-10T06:57:21.497Z,5.58
2017-12-10T06:58:02.065Z,5.56
2017-12-10T06:58:42.590Z,5.56
2017-12-10T06:59:23.153Z,5.42
2017-12-10T07:00:03.695Z,5.54
2017-12-10T07:00:44.245Z,5.54
2017-12-10T07:01:24.800Z,5.48
2017-12-10T07:02:05.361Z,5.51
2017-12-10T07:02:45.915Z,5.54
2017-12-10T07:03:26.475Z,5.51
2017-12-10T07:04:07.028Z,5.4
2017-12-10T07:04:47.575Z,5.39
2017-12-10T07:05:28.150Z,5.38
2017-12-10T07:06:08.703Z,5.35
2017-12-10T07:06:49.265Z,5.42
2017-12-10T07:07:29.806Z,5.48
2017-12-10T07:08:10.353Z,5.46
2017-12-10T07:08:50.891Z,5.48
2017-12-10T07:09:31.453Z,5.49
2017-12-10T07:10:12.020Z,5.45
2017-12-10T07:10:52.592Z,5.46
2017-12-10T07:11:33.111Z,5.46
2017-12-10T07:12:13.656Z,5.56
2017-12-10T07:12:54.219Z,5.51
2017-12-10T07:13:34.758Z,5.45
2017-12-10T07:14:15.330Z,5.35
2017-12-10T07:14:55.878Z,5.36
2017-12-10T07:15:36.419Z,5.45
2017-12-10T07:16:16.974Z,5.49
2017-12-10T07:16:57.546Z,5.45
2017-12-10T07:17:38.088Z,5.49
2017-12-10T07:18:18.659Z,5.46
2017-12-10T07:18:59.201Z,5.51
2017-12-10T07:19:39.756Z,5.39
2017-12-10T07:20:20.316Z,5.45
2017-12-10T07:21:00.873Z,5.39
2017-12-10T07:21:41.497Z,5.42
2017-12-10T07:22:21.997Z,5.42
2017-12-10T07:23:02.556Z,5.38
2017-12-10T07:23:43.129Z,5.53
2017-12-10T07:24:23.679Z,5.57
2017-12-10T07:25:04.233Z,5.48
2017-12-10T07:25:44.806Z,5.49
2017-12-10T07:26:25.358Z,5.49
2017-12-10T07:27:05.952Z,5.45
2017-12-10T07:27:46.473Z,5.45
2017-12-10T07:28:27.030Z,5.57
2017-12-10T07:29:07.598Z,5.65
2017-12-10T07:29:48.167Z,5.74
2017-12-10T07:30:28.741Z,5.64
2017-12-10T07:31:09.331Z,5.71
2017-12-10T07:31:49.881Z,5.75
2017-12-10T07:32:30.455Z,5.83
2017-12-10T07:33:11.017Z,5.85
2017-12-10T07:33:51.572Z,5.83
2017-12-10T07:34:32.122Z,5.89
2017-12-10T07:35:12.675Z,5.96
2017-12-10T07:35:53.236Z,5.96
2017-12-10T07:36:33.786Z,5.99
2017-12-10T07:37:14.356Z,5.96
2017-12-10T07:37:54.897Z,5.96
2017-12-10T07:38:35.459Z,5.94
2017-12-10T07:39:16.016Z,5.85
2017-12-10T07:39:56.595Z,5.89
2017-12-10T07:40:37.155Z,5.91
2017-12-10T07:41:17.706Z,5.99
2017-12-10T07:41:58.264Z,6.01
2017-12-10T07:42:38.819Z,5.91
2017-12-10T07:43:19.364Z,5.96
2017-12-10T07:43:59.927Z,5.99
2017-12-10T07:44:40.480Z,6.09
2017-12-10T07:45:21.044Z,6.08
2017-12-10T07:46:01.610Z,5.96
2017-12-10T07:46:42.177Z,6.04
2017-12-10T07:47:22.753Z,6.08
2017-12-10T07:48:03.325Z,6.03
2017-12-10T07:48:43.878Z,6.11
2017-12-10T07:49:24.423Z,6.01
2017-12-10T07:50:04.997Z,6.09
2017-12-10T07:50:45.576Z,6.01
2017-12-10T07:51:26.126Z,6
2017-12-10T07:52:06.693Z,5.9
2017-12-10T07:52:47.257Z,6.01
2017-12-10T07:53:27.810Z,6.09
2017-12-10T07:54:08.372Z,6.04
2017-12-10T07:54:48.999Z,6.08
2017-12-10T07:55:29.563Z,6.08
2017-12-10T07:56:10.123Z,5.97
2017-12-10T07:56:50.673Z,6.14
2017-12-10T07:57:31.201Z,6.09
2017-12-10T07:58:11.763Z,6.08
2017-12-10T07:58:52.318Z,6.08
2017-12-10T07:59:32.881Z,6.12
2017-12-10T08:00:13.437Z,6.14
2017-12-10T08:00:53.999Z,6.12
2017-12-10T08:01:34.556Z,6.19
2017-12-10T08:02:15.119Z,6.11
2017-12-10T08:02:55.669Z,6.14
2017-12-10T08:03:36.231Z,6.11
2017-12-10T08:04:16.800Z,6.11
2017-12-10T08:04:57.349Z,6.14
2017-12-10T08:05:37.903Z,6.31
2017-12-10T08:06:18.478Z,6.21
2017-12-10T08:06:59.038Z,6.12
2017-12-10T08:07:39.584Z,6.17
2017-12-10T08:08:20.159Z,6.18
2017-12-10T08:09:00.690Z,6.12
2017-12-10T08:09:41.273Z,6.09
2017-12-10T08:10:21.842Z,6.3
2017-12-10T08:11:02.426Z,6.22
2017-12-10T08:11:42.992Z,6.17
2017-12-10T08:12:23.587Z,6.33
2017-12-10T08:13:04.139Z,6.28
2017-12-10T08:13:44.707Z,6.31
2017-12-10T08:14:25.233Z,6.28
2017-12-10T08:15:05.761Z,6.33
2017-12-10T08:15:46.311Z,6.31
2017-12-10T08:16:26.869Z,6.36
2017-12-10T08:17:07.405Z,6.28
2017-12-10T08:17:47.970Z,6.22
2017-12-10T08:18:28.514Z,6.27
2017-12-10T08:19:09.084Z,6.37
2017-12-10T08:19:49.636Z,6.44
2017-12-10T08:20:30.190Z,6.34
2017-12-10T08:21:10.743Z,6.38
2017-12-10T08:21:51.295Z,6.25
2017-12-10T08:22:31.843Z,6.22
2017-12-10T08:23:12.432Z,6.28
2017-12-10T08:23:52.973Z,6.25
2017-12-10T08:24:33.526Z,6.31
2017-12-10T08:25:14.072Z,6.33
2017-12-10T08:25:54.621Z,6.33
2017-12-10T08:26:35.206Z,6.37
2017-12-10T08:27:15.768Z,6.34
2017-12-10T08:27:56.316Z,6.38
2017-12-10T08:28:36.874Z,6.43
2017-12-10T08:29:17.413Z,6.43
2017-12-10T08:29:57.972Z,6.28
2017-12-10T08:30:38.537Z,6.25
2017-12-10T08:31:19.129Z,6.31
2017-12-10T08:31:59.685Z,6.33
2017-12-10T08:32:40.258Z,6.31
2017-12-10T08:33:20.816Z,6.25
2017-12-10T08:34:01.387Z,6.3
2017-12-10T08:34:41.953Z,6.28
2017-12-10T08:35:22.520Z,6.31
2017-12-10T08:36:03.060Z,6.34
2017-12-10T08:36:43.630Z,6.27
2017-12-10T08:37:24.201Z,6.33
2017-12-10T08:38:04.758Z,6.33
2017-12-10T08:38:45.317Z,6.37
2017-12-10T08:39:25.869Z,6.31
2017-12-10T08:40:06.443Z,6.37
2017-12-10T08:40:46.994Z,6.38
2017-12-10T08:41:27.550Z,6.37
2017-12-10T08:42:08.110Z,6.34
2017-12-10T08:42:48.663Z,6.37
2017-12-10T08:43:29.197Z,6.43
2017-12-10T08:44:09.755Z,6.37
2017-12-10T08:44:50.303Z,6.4
2017-12-10T08:45:30.866Z,6.37
2017-12-10T08:46:11.438Z,6.37
2017-12-10T08:46:52.229Z,6.36
2017-12-10T08:47:32.774Z,6.41
2017-12-10T08:48:13.354Z,6.4
2017-12-10T08:48:53.876Z,6.46
2017-12-10T08:49:34.460Z,6.46
2017-12-10T08:50:15.021Z,6.43
2017-12-10T08:50:55.670Z,6.4
2017-12-10T08:51:36.284Z,6.37
2017-12-10T08:52:16.819Z,6.34
2017-12-10T08:52:57.337Z,6.33
2017-12-10T08:53:37.893Z,6.33
2017-12-10T08:54:18.483Z,6.38
2017-12-10T08:54:58.971Z,6.37
2017-12-10T08:55:39.531Z,6.44
2017-12-10T08:56:20.104Z,6.44
2017-12-10T08:57:00.647Z,6.43
2017-12-10T08:57:41.241Z,6.44
2017-12-10T08:58:21.763Z,6.46
2017-12-10T08:59:02.316Z,6.43
2017-12-10T08:59:42.887Z,6.46
2017-12-10T09:00:23.375Z,6.61
2017-12-10T09:01:03.949Z,6.51
2017-12-10T09:01:44.490Z,6.58